sensor_id;sensor_type;location;lat;lon;timestamp;temperature;humidity
4596;DHT22;2310;49.978;8.742;2022-09-09T00:00:14;18.60;99.90
4596;DHT22;2310;49.978;8.742;2022-09-09T00:04:31;18.50;99.90
4596;DHT22;2310;49.978;8.742;2022-09-09T00:08:50;18.80;99.90
4596;DHT22;2310;49.978;8.742;2022-09-09T00:22:03;18.80;99.90
4596;DHT22;2310;49.978;8.742;2022-09-09T00:26:14;18.60;99.90
4596;DHT22;2310;49.978;8.742;2022-09-09T00:30:23;18.80;99.90
4596;DHT22;2310;49.978;8.742;2022-09-09T00:34:26;18.50;99.90
4596;DHT22;2310;49.978;8.742;2022-09-09T00:38:37;18.50;99.90
4596;DHT22;2310;49.978;8.742;2022-09-09T00:42:43;18.60;99.90
4596;DHT22;2310;49.978;8.742;2022-09-09T00:46:56;18.70;99.90
4596;DHT22;2310;49.978;8.742;2022-09-09T00:52:12;18.80;99.90
4596;DHT22;2310;49.978;8.742;2022-09-09T01:03:52;18.40;99.90
4596;DHT22;2310;49.978;8.742;2022-09-09T01:07:52;18.30;99.90
4596;DHT22;2310;49.978;8.742;2022-09-09T01:16:07;18.50;99.90
4596;DHT22;2310;49.978;8.742;2022-09-09T01:28:48;18.60;99.90
4596;DHT22;2310;49.978;8.742;2022-09-09T01:32:56;18.70;99.90
4596;DHT22;2310;49.978;8.742;2022-09-09T01:37:07;18.80;99.90
4596;DHT22;2310;49.978;8.742;2022-09-09T01:41:09;18.80;99.90
4596;DHT22;2310;49.978;8.742;2022-09-09T01:45:10;18.70;99.90
4596;DHT22;2310;49.978;8.742;2022-09-09T01:49:11;18.70;99.90
4596;DHT22;2310;49.978;8.742;2022-09-09T01:53:14;18.70;99.90
4596;DHT22;2310;49.978;8.742;2022-09-09T01:57:31;18.80;99.90
4596;DHT22;2310;49.978;8.742;2022-09-09T02:06:21;18.70;99.90
4596;DHT22;2310;49.978;8.742;2022-09-09T02:10:28;18.50;99.90
4596;DHT22;2310;49.978;8.742;2022-09-09T02:14:32;18.50;99.90
4596;DHT22;2310;49.978;8.742;2022-09-09T02:18:50;18.60;99.90
4596;DHT22;2310;49.978;8.742;2022-09-09T02:22:50;18.70;99.90
4596;DHT22;2310;49.978;8.742;2022-09-09T02:26:54;18.70;99.90
4596;DHT22;2310;49.978;8.742;2022-09-09T02:30:56;18.60;99.90
4596;DHT22;2310;49.978;8.742;2022-09-09T02:35:08;18.40;99.90
4596;DHT22;2310;49.978;8.742;2022-09-09T02:39:10;18.50;99.90
4596;DHT22;2310;49.978;8.742;2022-09-09T02:43:14;18.40;99.90
4596;DHT22;2310;49.978;8.742;2022-09-09T02:47:26;18.30;99.90
4596;DHT22;2310;49.978;8.742;2022-09-09T02:51:40;18.20;99.90
4596;DHT22;2310;49.978;8.742;2022-09-09T02:55:50;18.20;99.90
4596;DHT22;2310;49.978;8.742;2022-09-09T02:59:51;18.30;99.90
4596;DHT22;2310;49.978;8.742;2022-09-09T03:03:53;18.20;99.90
4596;DHT22;2310;49.978;8.742;2022-09-09T03:07:56;18.10;99.90
4596;DHT22;2310;49.978;8.742;2022-09-09T03:11:57;18.50;99.90
4596;DHT22;2310;49.978;8.742;2022-09-09T03:15:58;18.60;99.90
4596;DHT22;2310;49.978;8.742;2022-09-09T03:20:03;18.50;99.90
4596;DHT22;2310;49.978;8.742;2022-09-09T03:24:04;18.40;99.90
4596;DHT22;2310;49.978;8.742;2022-09-09T03:28:07;18.40;99.90
4596;DHT22;2310;49.978;8.742;2022-09-09T03:32:08;18.60;99.90
4596;DHT22;2310;49.978;8.742;2022-09-09T03:36:11;18.60;99.90
4596;DHT22;2310;49.978;8.742;2022-09-09T03:40:13;18.40;99.90
4596;DHT22;2310;49.978;8.742;2022-09-09T03:44:14;18.30;99.90
4596;DHT22;2310;49.978;8.742;2022-09-09T03:48:17;18.40;99.90
4596;DHT22;2310;49.978;8.742;2022-09-09T03:52:18;18.20;99.90
4596;DHT22;2310;49.978;8.742;2022-09-09T03:56:23;18.20;99.90
4596;DHT22;2310;49.978;8.742;2022-09-09T04:00:24;18.00;99.90
4596;DHT22;2310;49.978;8.742;2022-09-09T04:04:27;17.90;99.90
4596;DHT22;2310;49.978;8.742;2022-09-09T04:08:29;17.90;99.90
4596;DHT22;2310;49.978;8.742;2022-09-09T04:12:32;17.90;99.90
4596;DHT22;2310;49.978;8.742;2022-09-09T04:16:33;18.00;99.90
4596;DHT22;2310;49.978;8.742;2022-09-09T04:20:36;18.00;99.90
4596;DHT22;2310;49.978;8.742;2022-09-09T04:24:37;18.10;99.90
4596;DHT22;2310;49.978;8.742;2022-09-09T04:28:38;18.10;99.90
4596;DHT22;2310;49.978;8.742;2022-09-09T04:32:39;18.00;99.90
4596;DHT22;2310;49.978;8.742;2022-09-09T04:36:40;17.90;99.90
4596;DHT22;2310;49.978;8.742;2022-09-09T04:40:43;17.80;99.90
4596;DHT22;2310;49.978;8.742;2022-09-09T04:44:44;17.90;99.90
4596;DHT22;2310;49.978;8.742;2022-09-09T04:48:46;18.00;99.90
4596;DHT22;2310;49.978;8.742;2022-09-09T04:52:47;17.90;99.90
4596;DHT22;2310;49.978;8.742;2022-09-09T04:56:50;17.70;99.90
4596;DHT22;2310;49.978;8.742;2022-09-09T05:00:51;17.80;99.90
4596;DHT22;2310;49.978;8.742;2022-09-09T05:04:52;17.90;99.90
4596;DHT22;2310;49.978;8.742;2022-09-09T05:08:53;17.90;99.90
4596;DHT22;2310;49.978;8.742;2022-09-09T05:12:55;17.90;99.90
4596;DHT22;2310;49.978;8.742;2022-09-09T05:16:56;17.70;99.90
4596;DHT22;2310;49.978;8.742;2022-09-09T05:20:59;17.70;99.90
4596;DHT22;2310;49.978;8.742;2022-09-09T05:25:01;17.70;99.90
4596;DHT22;2310;49.978;8.742;2022-09-09T05:29:02;18.00;99.90
4596;DHT22;2310;49.978;8.742;2022-09-09T05:33:03;18.00;99.90
4596;DHT22;2310;49.978;8.742;2022-09-09T05:37:04;17.80;99.90
4596;DHT22;2310;49.978;8.742;2022-09-09T05:41:06;17.80;99.90
4596;DHT22;2310;49.978;8.742;2022-09-09T05:45:08;17.90;99.90
4596;DHT22;2310;49.978;8.742;2022-09-09T05:49:10;17.80;99.90
4596;DHT22;2310;49.978;8.742;2022-09-09T05:53:11;17.70;99.90
4596;DHT22;2310;49.978;8.742;2022-09-09T05:57:13;17.70;99.90
4596;DHT22;2310;49.978;8.742;2022-09-09T06:01:23;17.60;99.90
4596;DHT22;2310;49.978;8.742;2022-09-09T06:05:25;17.70;99.90
4596;DHT22;2310;49.978;8.742;2022-09-09T06:09:29;17.60;99.90
4596;DHT22;2310;49.978;8.742;2022-09-09T06:13:32;17.60;99.90
4596;DHT22;2310;49.978;8.742;2022-09-09T06:17:33;17.80;99.90
4596;DHT22;2310;49.978;8.742;2022-09-09T06:21:36;17.70;99.90
4596;DHT22;2310;49.978;8.742;2022-09-09T06:25:37;17.90;99.90
4596;DHT22;2310;49.978;8.742;2022-09-09T06:29:41;18.30;99.90
4596;DHT22;2310;49.978;8.742;2022-09-09T06:33:43;18.60;99.90
4596;DHT22;2310;49.978;8.742;2022-09-09T06:37:45;18.40;99.90
4596;DHT22;2310;49.978;8.742;2022-09-09T06:41:48;18.60;99.90
4596;DHT22;2310;49.978;8.742;2022-09-09T06:49:57;18.90;99.90
4596;DHT22;2310;49.978;8.742;2022-09-09T06:54:00;18.80;99.90
4596;DHT22;2310;49.978;8.742;2022-09-09T06:58:08;18.90;99.90
4596;DHT22;2310;49.978;8.742;2022-09-09T07:02:08;18.70;99.90
4596;DHT22;2310;49.978;8.742;2022-09-09T07:06:16;19.00;99.90
4596;DHT22;2310;49.978;8.742;2022-09-09T07:10:15;19.10;99.90
4596;DHT22;2310;49.978;8.742;2022-09-09T07:14:16;19.30;99.90
4596;DHT22;2310;49.978;8.742;2022-09-09T07:18:19;19.40;99.90
4596;DHT22;2310;49.978;8.742;2022-09-09T07:22:20;19.30;99.90
4596;DHT22;2310;49.978;8.742;2022-09-09T07:26:24;18.90;99.90
4596;DHT22;2310;49.978;8.742;2022-09-09T07:30:26;18.90;99.90
4596;DHT22;2310;49.978;8.742;2022-09-09T07:34:28;19.10;99.90
4596;DHT22;2310;49.978;8.742;2022-09-09T07:38:30;19.10;99.90
4596;DHT22;2310;49.978;8.742;2022-09-09T07:42:31;19.00;99.90
4596;DHT22;2310;49.978;8.742;2022-09-09T07:46:33;18.80;99.90
4596;DHT22;2310;49.978;8.742;2022-09-09T07:50:35;18.90;99.90
4596;DHT22;2310;49.978;8.742;2022-09-09T07:54:36;18.90;99.90
4596;DHT22;2310;49.978;8.742;2022-09-09T07:58:39;18.80;99.90
4596;DHT22;2310;49.978;8.742;2022-09-09T08:02:40;19.30;99.90
4596;DHT22;2310;49.978;8.742;2022-09-09T08:06:54;19.20;99.90
4596;DHT22;2310;49.978;8.742;2022-09-09T08:10:53;19.30;99.90
4596;DHT22;2310;49.978;8.742;2022-09-09T08:14:58;19.60;99.90
4596;DHT22;2310;49.978;8.742;2022-09-09T08:18:59;19.80;99.90
4596;DHT22;2310;49.978;8.742;2022-09-09T08:23:00;20.00;99.90
4596;DHT22;2310;49.978;8.742;2022-09-09T08:27:01;20.00;99.90
4596;DHT22;2310;49.978;8.742;2022-09-09T08:35:10;19.90;99.90
4596;DHT22;2310;49.978;8.742;2022-09-09T08:39:13;20.00;99.90
4596;DHT22;2310;49.978;8.742;2022-09-09T08:43:16;19.80;99.90
4596;DHT22;2310;49.978;8.742;2022-09-09T08:47:52;20.20;99.90
4596;DHT22;2310;49.978;8.742;2022-09-09T08:51:53;20.20;99.90
4596;DHT22;2310;49.978;8.742;2022-09-09T08:55:58;20.00;99.90
4596;DHT22;2310;49.978;8.742;2022-09-09T09:00:00;20.20;99.90
4596;DHT22;2310;49.978;8.742;2022-09-09T09:08:38;20.60;99.90
4596;DHT22;2310;49.978;8.742;2022-09-09T09:12:41;20.40;99.90
4596;DHT22;2310;49.978;8.742;2022-09-09T09:16:49;20.60;99.90
4596;DHT22;2310;49.978;8.742;2022-09-09T09:21:13;20.20;99.90
4596;DHT22;2310;49.978;8.742;2022-09-09T09:25:21;19.90;99.90
4596;DHT22;2310;49.978;8.742;2022-09-09T09:29:24;19.80;99.90
4596;DHT22;2310;49.978;8.742;2022-09-09T09:33:31;19.40;99.90
4596;DHT22;2310;49.978;8.742;2022-09-09T09:37:33;19.60;99.90
4596;DHT22;2310;49.978;8.742;2022-09-09T09:41:39;19.40;99.90
4596;DHT22;2310;49.978;8.742;2022-09-09T09:45:42;19.30;99.90
4596;DHT22;2310;49.978;8.742;2022-09-09T09:49:57;19.40;99.90
4596;DHT22;2310;49.978;8.742;2022-09-09T09:54:15;20.40;99.90
4596;DHT22;2310;49.978;8.742;2022-09-09T09:58:17;20.40;99.90
4596;DHT22;2310;49.978;8.742;2022-09-09T10:02:21;20.70;99.90
4596;DHT22;2310;49.978;8.742;2022-09-09T10:06:36;20.70;99.90
4596;DHT22;2310;49.978;8.742;2022-09-09T10:19:20;21.00;99.90
4596;DHT22;2310;49.978;8.742;2022-09-09T10:28:02;20.50;99.90
4596;DHT22;2310;49.978;8.742;2022-09-09T10:36:30;22.30;99.90
4596;DHT22;2310;49.978;8.742;2022-09-09T10:57:34;22.90;99.90
4596;DHT22;2310;49.978;8.742;2022-09-09T11:01:41;22.20;99.90
4596;DHT22;2310;49.978;8.742;2022-09-09T11:05:45;21.50;99.90
4596;DHT22;2310;49.978;8.742;2022-09-09T11:09:50;22.40;99.90
4596;DHT22;2310;49.978;8.742;2022-09-09T11:13:59;21.90;99.90
4596;DHT22;2310;49.978;8.742;2022-09-09T11:18:02;21.30;99.90
4596;DHT22;2310;49.978;8.742;2022-09-09T11:22:08;22.10;99.90
4596;DHT22;2310;49.978;8.742;2022-09-09T11:26:14;22.80;99.90
4596;DHT22;2310;49.978;8.742;2022-09-09T11:30:22;22.90;99.90
4596;DHT22;2310;49.978;8.742;2022-09-09T11:34:38;22.90;99.90
4596;DHT22;2310;49.978;8.742;2022-09-09T11:38:50;23.00;99.90
4596;DHT22;2310;49.978;8.742;2022-09-09T11:43:49;23.10;99.90
4596;DHT22;2310;49.978;8.742;2022-09-09T11:47:24;22.50;99.90
4596;DHT22;2310;49.978;8.742;2022-09-09T11:51:29;22.60;99.90
4596;DHT22;2310;49.978;8.742;2022-09-09T11:55:33;22.80;99.90
4596;DHT22;2310;49.978;8.742;2022-09-09T11:59:37;22.40;99.90
4596;DHT22;2310;49.978;8.742;2022-09-09T12:03:50;22.20;99.90
4596;DHT22;2310;49.978;8.742;2022-09-09T12:07:56;22.20;99.90
4596;DHT22;2310;49.978;8.742;2022-09-09T12:16:29;22.70;99.90
4596;DHT22;2310;49.978;8.742;2022-09-09T12:20:38;23.20;99.90
4596;DHT22;2310;49.978;8.742;2022-09-09T12:33:16;22.50;99.90
4596;DHT22;2310;49.978;8.742;2022-09-09T12:37:29;23.20;99.90
4596;DHT22;2310;49.978;8.742;2022-09-09T12:41:31;23.30;99.90
4596;DHT22;2310;49.978;8.742;2022-09-09T12:45:33;23.20;99.90
4596;DHT22;2310;49.978;8.742;2022-09-09T12:49:38;22.80;99.90
4596;DHT22;2310;49.978;8.742;2022-09-09T12:53:41;22.70;99.90
4596;DHT22;2310;49.978;8.742;2022-09-09T12:57:43;21.90;99.90
4596;DHT22;2310;49.978;8.742;2022-09-09T13:01:54;21.40;99.90
4596;DHT22;2310;49.978;8.742;2022-09-09T13:05:51;21.30;99.90
4596;DHT22;2310;49.978;8.742;2022-09-09T13:09:52;21.30;99.90
4596;DHT22;2310;49.978;8.742;2022-09-09T13:13:55;21.40;99.90
4596;DHT22;2310;49.978;8.742;2022-09-09T13:18:03;22.00;99.90
4596;DHT22;2310;49.978;8.742;2022-09-09T13:22:18;22.30;99.90
4596;DHT22;2310;49.978;8.742;2022-09-09T13:26:24;22.00;99.90
4596;DHT22;2310;49.978;8.742;2022-09-09T13:30:29;21.70;99.90
4596;DHT22;2310;49.978;8.742;2022-09-09T13:34:34;21.90;99.90
4596;DHT22;2310;49.978;8.742;2022-09-09T13:38:54;21.90;99.90
4596;DHT22;2310;49.978;8.742;2022-09-09T13:42:56;22.20;99.90
4596;DHT22;2310;49.978;8.742;2022-09-09T13:47:18;22.50;99.90
4596;DHT22;2310;49.978;8.742;2022-09-09T13:51:28;22.60;99.90
4596;DHT22;2310;49.978;8.742;2022-09-09T13:55:28;22.50;99.90
4596;DHT22;2310;49.978;8.742;2022-09-09T13:59:30;22.60;99.90
4596;DHT22;2310;49.978;8.742;2022-09-09T14:03:34;23.30;99.90
4596;DHT22;2310;49.978;8.742;2022-09-09T14:07:35;23.50;99.90
4596;DHT22;2310;49.978;8.742;2022-09-09T14:11:37;22.80;99.90
4596;DHT22;2310;49.978;8.742;2022-09-09T14:15:39;22.30;99.90
4596;DHT22;2310;49.978;8.742;2022-09-09T14:19:40;22.20;99.90
4596;DHT22;2310;49.978;8.742;2022-09-09T14:23:41;21.80;99.90
4596;DHT22;2310;49.978;8.742;2022-09-09T14:27:42;21.90;99.90
4596;DHT22;2310;49.978;8.742;2022-09-09T14:31:44;21.60;99.90
4596;DHT22;2310;49.978;8.742;2022-09-09T14:35:45;21.40;99.90
4596;DHT22;2310;49.978;8.742;2022-09-09T14:39:46;21.50;99.90
4596;DHT22;2310;49.978;8.742;2022-09-09T14:43:48;21.80;99.90
4596;DHT22;2310;49.978;8.742;2022-09-09T14:47:50;21.50;99.90
4596;DHT22;2310;49.978;8.742;2022-09-09T14:51:52;21.40;99.90
4596;DHT22;2310;49.978;8.742;2022-09-09T14:56:02;21.60;99.90
4596;DHT22;2310;49.978;8.742;2022-09-09T14:59:58;21.40;99.90
4596;DHT22;2310;49.978;8.742;2022-09-09T15:04:02;21.30;99.90
4596;DHT22;2310;49.978;8.742;2022-09-09T15:08:04;21.50;99.90
4596;DHT22;2310;49.978;8.742;2022-09-09T15:12:05;21.50;99.90
4596;DHT22;2310;49.978;8.742;2022-09-09T15:16:09;21.50;99.90
4596;DHT22;2310;49.978;8.742;2022-09-09T15:20:11;21.50;99.90
4596;DHT22;2310;49.978;8.742;2022-09-09T15:24:12;21.60;99.90
4596;DHT22;2310;49.978;8.742;2022-09-09T15:28:14;21.60;99.90
4596;DHT22;2310;49.978;8.742;2022-09-09T15:32:15;21.90;99.90
4596;DHT22;2310;49.978;8.742;2022-09-09T15:36:23;22.40;99.90
4596;DHT22;2310;49.978;8.742;2022-09-09T15:40:24;22.00;99.90
4596;DHT22;2310;49.978;8.742;2022-09-09T15:44:25;22.00;99.90
4596;DHT22;2310;49.978;8.742;2022-09-09T15:48:30;22.50;99.90
4596;DHT22;2310;49.978;8.742;2022-09-09T15:52:35;22.30;99.90
4596;DHT22;2310;49.978;8.742;2022-09-09T15:56:36;22.30;99.90
4596;DHT22;2310;49.978;8.742;2022-09-09T16:00:37;21.90;99.90
4596;DHT22;2310;49.978;8.742;2022-09-09T16:04:39;21.60;99.90
4596;DHT22;2310;49.978;8.742;2022-09-09T16:08:42;21.80;99.90
4596;DHT22;2310;49.978;8.742;2022-09-09T16:12:44;21.80;99.90
4596;DHT22;2310;49.978;8.742;2022-09-09T16:16:45;21.60;99.90
4596;DHT22;2310;49.978;8.742;2022-09-09T16:20:54;21.00;99.90
4596;DHT22;2310;49.978;8.742;2022-09-09T16:24:55;21.50;99.90
4596;DHT22;2310;49.978;8.742;2022-09-09T16:28:57;21.40;99.90
4596;DHT22;2310;49.978;8.742;2022-09-09T16:32:59;21.10;99.90
4596;DHT22;2310;49.978;8.742;2022-09-09T16:37:00;21.00;99.90
4596;DHT22;2310;49.978;8.742;2022-09-09T16:41:04;20.60;99.90
4596;DHT22;2310;49.978;8.742;2022-09-09T16:45:09;20.60;99.90
4596;DHT22;2310;49.978;8.742;2022-09-09T16:49:12;20.30;99.90
4596;DHT22;2310;49.978;8.742;2022-09-09T16:53:13;20.40;99.90
4596;DHT22;2310;49.978;8.742;2022-09-09T16:57:16;20.40;99.90
4596;DHT22;2310;49.978;8.742;2022-09-09T17:01:17;20.50;99.90
4596;DHT22;2310;49.978;8.742;2022-09-09T17:05:18;20.80;99.90
4596;DHT22;2310;49.978;8.742;2022-09-09T17:09:21;20.30;99.90
4596;DHT22;2310;49.978;8.742;2022-09-09T17:13:24;20.50;99.90
4596;DHT22;2310;49.978;8.742;2022-09-09T17:17:26;20.30;99.90
4596;DHT22;2310;49.978;8.742;2022-09-09T17:21:30;19.90;99.90
4596;DHT22;2310;49.978;8.742;2022-09-09T17:25:32;20.30;99.90
4596;DHT22;2310;49.978;8.742;2022-09-09T17:29:35;20.10;99.90
4596;DHT22;2310;49.978;8.742;2022-09-09T17:33:38;20.30;99.90
4596;DHT22;2310;49.978;8.742;2022-09-09T17:37:40;20.00;99.90
4596;DHT22;2310;49.978;8.742;2022-09-09T17:41:41;19.70;99.90
4596;DHT22;2310;49.978;8.742;2022-09-09T17:45:42;19.50;99.90
4596;DHT22;2310;49.978;8.742;2022-09-09T17:49:44;19.50;99.90
4596;DHT22;2310;49.978;8.742;2022-09-09T17:53:47;19.40;99.90
4596;DHT22;2310;49.978;8.742;2022-09-09T17:57:49;19.40;99.90
4596;DHT22;2310;49.978;8.742;2022-09-09T18:01:50;19.30;99.90
4596;DHT22;2310;49.978;8.742;2022-09-09T18:05:59;19.00;99.90
4596;DHT22;2310;49.978;8.742;2022-09-09T18:09:57;18.70;99.90
4596;DHT22;2310;49.978;8.742;2022-09-09T18:14:01;19.00;99.90
4596;DHT22;2310;49.978;8.742;2022-09-09T18:18:02;19.40;99.90
4596;DHT22;2310;49.978;8.742;2022-09-09T18:22:06;19.60;99.90
4596;DHT22;2310;49.978;8.742;2022-09-09T18:26:13;19.50;99.90
4596;DHT22;2310;49.978;8.742;2022-09-09T18:30:14;19.90;99.90
4596;DHT22;2310;49.978;8.742;2022-09-09T18:34:17;19.90;99.90
4596;DHT22;2310;49.978;8.742;2022-09-09T18:38:19;19.70;99.90
4596;DHT22;2310;49.978;8.742;2022-09-09T18:42:20;19.70;99.90
4596;DHT22;2310;49.978;8.742;2022-09-09T18:46:22;19.90;99.90
4596;DHT22;2310;49.978;8.742;2022-09-09T18:50:25;19.70;99.90
4596;DHT22;2310;49.978;8.742;2022-09-09T18:54:27;19.10;99.90
4596;DHT22;2310;49.978;8.742;2022-09-09T18:58:31;18.90;99.90
4596;DHT22;2310;49.978;8.742;2022-09-09T19:02:32;18.50;99.90
4596;DHT22;2310;49.978;8.742;2022-09-09T19:06:37;18.10;99.90
4596;DHT22;2310;49.978;8.742;2022-09-09T19:10:38;18.00;99.90
4596;DHT22;2310;49.978;8.742;2022-09-09T19:14:39;17.80;99.90
4596;DHT22;2310;49.978;8.742;2022-09-09T19:18:41;17.70;99.90
4596;DHT22;2310;49.978;8.742;2022-09-09T19:22:44;17.70;99.90
4596;DHT22;2310;49.978;8.742;2022-09-09T19:26:52;17.70;99.90
4596;DHT22;2310;49.978;8.742;2022-09-09T19:30:53;17.40;99.90
4596;DHT22;2310;49.978;8.742;2022-09-09T19:34:56;17.60;99.90
4596;DHT22;2310;49.978;8.742;2022-09-09T19:38:57;17.50;99.90
4596;DHT22;2310;49.978;8.742;2022-09-09T19:42:59;17.50;99.90
4596;DHT22;2310;49.978;8.742;2022-09-09T19:47:00;17.40;99.90
4596;DHT22;2310;49.978;8.742;2022-09-09T19:51:07;16.90;99.90
4596;DHT22;2310;49.978;8.742;2022-09-09T19:55:09;17.00;99.90
4596;DHT22;2310;49.978;8.742;2022-09-09T19:59:12;16.70;99.90
4596;DHT22;2310;49.978;8.742;2022-09-09T20:03:14;16.80;99.90
4596;DHT22;2310;49.978;8.742;2022-09-09T20:07:18;16.80;99.90
4596;DHT22;2310;49.978;8.742;2022-09-09T20:11:19;16.80;99.90
4596;DHT22;2310;49.978;8.742;2022-09-09T20:15:20;16.80;99.90
4596;DHT22;2310;49.978;8.742;2022-09-09T20:19:22;16.80;99.90
4596;DHT22;2310;49.978;8.742;2022-09-09T20:23:23;16.60;99.90
4596;DHT22;2310;49.978;8.742;2022-09-09T20:27:24;16.60;99.90
4596;DHT22;2310;49.978;8.742;2022-09-09T20:31:28;16.70;99.90
4596;DHT22;2310;49.978;8.742;2022-09-09T20:35:29;16.90;99.90
4596;DHT22;2310;49.978;8.742;2022-09-09T20:39:31;16.90;99.90
4596;DHT22;2310;49.978;8.742;2022-09-09T20:43:32;16.80;99.90
4596;DHT22;2310;49.978;8.742;2022-09-09T20:47:33;16.50;99.90
4596;DHT22;2310;49.978;8.742;2022-09-09T20:51:35;16.50;99.90
4596;DHT22;2310;49.978;8.742;2022-09-09T20:55:36;16.30;99.90
4596;DHT22;2310;49.978;8.742;2022-09-09T20:59:38;16.30;99.90
4596;DHT22;2310;49.978;8.742;2022-09-09T21:03:39;16.30;99.90
4596;DHT22;2310;49.978;8.742;2022-09-09T21:07:40;16.40;99.90
4596;DHT22;2310;49.978;8.742;2022-09-09T21:11:42;16.50;99.90
4596;DHT22;2310;49.978;8.742;2022-09-09T21:15:44;16.30;99.90
4596;DHT22;2310;49.978;8.742;2022-09-09T21:19:45;16.30;99.90
4596;DHT22;2310;49.978;8.742;2022-09-09T21:23:47;16.30;99.90
4596;DHT22;2310;49.978;8.742;2022-09-09T21:27:49;16.50;99.90
4596;DHT22;2310;49.978;8.742;2022-09-09T21:31:50;16.60;99.90
4596;DHT22;2310;49.978;8.742;2022-09-09T21:35:51;16.50;99.90
4596;DHT22;2310;49.978;8.742;2022-09-09T21:39:52;16.50;99.90
4596;DHT22;2310;49.978;8.742;2022-09-09T21:43:53;16.40;99.90
4596;DHT22;2310;49.978;8.742;2022-09-09T21:47:55;16.20;99.90
4596;DHT22;2310;49.978;8.742;2022-09-09T21:51:56;16.10;99.90
4596;DHT22;2310;49.978;8.742;2022-09-09T21:56:03;16.10;99.90
4596;DHT22;2310;49.978;8.742;2022-09-09T22:00:07;16.30;99.90
4596;DHT22;2310;49.978;8.742;2022-09-09T22:04:18;16.30;99.90
4596;DHT22;2310;49.978;8.742;2022-09-09T22:08:19;16.50;99.90
4596;DHT22;2310;49.978;8.742;2022-09-09T22:12:20;16.80;99.90
4596;DHT22;2310;49.978;8.742;2022-09-09T22:16:22;16.50;99.90
4596;DHT22;2310;49.978;8.742;2022-09-09T22:20:23;16.40;99.90
4596;DHT22;2310;49.978;8.742;2022-09-09T22:24:25;16.30;99.90
4596;DHT22;2310;49.978;8.742;2022-09-09T22:28:27;16.40;99.90
4596;DHT22;2310;49.978;8.742;2022-09-09T22:32:29;16.60;99.90
4596;DHT22;2310;49.978;8.742;2022-09-09T22:36:31;16.80;99.90
4596;DHT22;2310;49.978;8.742;2022-09-09T22:40:35;16.70;99.90
4596;DHT22;2310;49.978;8.742;2022-09-09T22:44:36;16.90;99.90
4596;DHT22;2310;49.978;8.742;2022-09-09T22:48:38;16.60;99.90
4596;DHT22;2310;49.978;8.742;2022-09-09T22:52:40;16.50;99.90
4596;DHT22;2310;49.978;8.742;2022-09-09T22:56:41;16.80;99.90
4596;DHT22;2310;49.978;8.742;2022-09-09T23:00:42;16.90;99.90
4596;DHT22;2310;49.978;8.742;2022-09-09T23:04:43;16.90;99.90
4596;DHT22;2310;49.978;8.742;2022-09-09T23:08:47;16.90;99.90
4596;DHT22;2310;49.978;8.742;2022-09-09T23:12:49;16.70;99.90
4596;DHT22;2310;49.978;8.742;2022-09-09T23:16:50;16.70;99.90
4596;DHT22;2310;49.978;8.742;2022-09-09T23:20:56;16.60;99.90
4596;DHT22;2310;49.978;8.742;2022-09-09T23:25:00;16.70;99.90
4596;DHT22;2310;49.978;8.742;2022-09-09T23:29:01;16.90;99.90
4596;DHT22;2310;49.978;8.742;2022-09-09T23:33:03;16.90;99.90
4596;DHT22;2310;49.978;8.742;2022-09-09T23:37:04;17.00;99.90
4596;DHT22;2310;49.978;8.742;2022-09-09T23:41:08;17.00;99.90
4596;DHT22;2310;49.978;8.742;2022-09-09T23:45:10;17.00;99.90
4596;DHT22;2310;49.978;8.742;2022-09-09T23:49:11;17.00;99.90
4596;DHT22;2310;49.978;8.742;2022-09-09T23:53:12;16.90;99.90
4596;DHT22;2310;49.978;8.742;2022-09-09T23:57:15;16.80;99.90
